Terminal Aerodrome Forecast
Issued by NWS Houston/Galveston, TX

Home | Current Version | Previous Version | Text Only | Print | Product List | Glossary On
Versions: 1 2 3 4 5 6 7 8 9 10 11 12 13 14 15
000
FTUS44 KHGX 232033 AAA
TAFGLS
TAF AMD
KGLS 232033Z 2321/2418 15011KT P6SM FEW250
     FM240600 18007KT P6SM FEW022 SCT250
      TEMPO 2410/2413 29005KT BKN250
     FM241300 VRB05KT P6SM VCSH SCT022 BKN250
     FM241700 18007KT P6SM SCT025=

USA.gov is the U.S. government's official web portal to all federal, state and local government web resources and services.